createdAt,value
2023-02-06T00:03:51.092Z,49.70
2023-02-06T00:13:57.467Z,45.20
2023-02-06T00:24:05.033Z,35.40
2023-02-06T00:34:11.326Z,32.20
2023-02-06T00:44:17.684Z,32.40
2023-02-06T00:54:24.038Z,30.70
2023-02-06T01:04:29.276Z,31.75
2023-02-06T01:14:35.712Z,35.00
2023-02-06T01:24:41.988Z,34.70
2023-02-06T01:34:48.261Z,33.50
2023-02-06T01:45:22.525Z,34.10
2023-02-06T01:55:29.076Z,35.30
2023-02-06T02:05:36.090Z,43.30
2023-02-06T02:15:42.569Z,47.50
2023-02-06T02:26:07.420Z,41.00
2023-02-06T02:36:35.746Z,39.00
2023-02-06T02:46:44.968Z,41.90
2023-02-06T02:56:51.753Z,44.50
2023-02-06T03:07:08.684Z,39.40
2023-02-06T03:17:17.612Z,37.50
2023-02-06T03:27:24.075Z,35.20
2023-02-06T03:37:30.906Z,33.80
2023-02-06T03:47:38.030Z,33.70
2023-02-06T03:57:46.720Z,33.30
2023-02-06T04:07:55.051Z,34.90
2023-02-06T04:18:02.020Z,32.40
2023-02-06T04:28:08.741Z,32.70
2023-02-06T04:38:15.092Z,41.70
2023-02-06T04:48:21.444Z,45.90
2023-02-06T04:58:27.790Z,43.60
2023-02-06T05:08:34.110Z,34.60
2023-02-06T05:18:41.124Z,33.50
2023-02-06T05:28:47.964Z,35.20
2023-02-06T05:38:54.544Z,32.80
2023-02-06T05:49:00.854Z,32.80
2023-02-06T05:59:07.653Z,55.00
2023-02-06T06:09:13.955Z,48.50
2023-02-06T06:19:20.370Z,74.00
2023-02-06T06:29:27.267Z,47.00
2023-02-06T06:39:33.551Z,43.50
2023-02-06T06:49:40.203Z,44.40
2023-02-06T06:59:46.525Z,45.50
2023-02-06T07:09:52.770Z,57.00
2023-02-06T07:19:59.159Z,59.30
2023-02-06T07:30:06.659Z,53.30
2023-02-06T07:40:13.714Z,55.00
2023-02-06T07:50:20.095Z,47.40
2023-02-06T08:00:26.425Z,59.80
2023-02-06T08:10:33.369Z,52.50
2023-02-06T08:20:39.704Z,62.10
2023-02-06T08:30:46.224Z,48.70
2023-02-06T08:40:52.582Z,33.40
2023-02-06T08:51:06.421Z,22.50
2023-02-06T09:01:15.646Z,18.90
2023-02-06T09:11:23.908Z,32.70
2023-02-06T09:21:32.124Z,19.30
2023-02-06T09:31:40.500Z,18.00
2023-02-06T09:42:00.329Z,12.80
2023-02-06T09:52:33.336Z,9.80
2023-02-06T10:02:42.590Z,10.30
2023-02-06T10:13:00.956Z,10.80
2023-02-06T10:23:14.035Z,11.80
2023-02-06T10:33:26.008Z,13.80
2023-02-06T10:43:38.468Z,15.00
2023-02-06T10:53:59.275Z,15.20
2023-02-06T11:04:28.331Z,13.60
2023-02-06T11:14:38.779Z,12.80
2023-02-06T11:25:00.856Z,12.90
2023-02-06T11:35:40.803Z,15.70
2023-02-06T11:45:49.350Z,16.30
2023-02-06T11:56:18.245Z,15.80
2023-02-06T12:06:30.762Z,16.50
2023-02-06T12:16:39.824Z,15.70
2023-02-06T12:26:46.741Z,15.55
2023-02-06T12:37:12.536Z,14.10
2023-02-06T12:47:30.305Z,13.00
2023-02-06T12:57:38.303Z,12.30
2023-02-06T13:07:49.567Z,12.50
2023-02-06T13:17:56.945Z,12.10
2023-02-06T13:28:23.552Z,10.60
2023-02-06T13:38:38.206Z,10.70
2023-02-06T13:49:13.320Z,12.30
2023-02-06T13:59:24.799Z,11.90
2023-02-06T14:10:06.393Z,10.60
2023-02-06T14:20:21.849Z,11.30
2023-02-06T14:30:30.173Z,12.40
2023-02-06T14:40:40.802Z,11.60
2023-02-06T14:50:56.362Z,11.20
2023-02-06T15:01:18.094Z,10.10
2023-02-06T15:11:26.886Z,10.20
2023-02-06T15:21:33.171Z,11.20
2023-02-06T15:31:39.553Z,12.20
2023-02-06T15:41:48.848Z,12.30
2023-02-06T15:51:56.233Z,19.10
2023-02-06T16:02:05.144Z,14.90
2023-02-06T16:12:11.866Z,17.00
2023-02-06T16:22:19.895Z,29.40
2023-02-06T16:32:30.330Z,27.90
2023-02-06T16:42:39.392Z,32.10
2023-02-06T16:52:54.153Z,104.50
2023-02-06T17:03:01.728Z,48.10
2023-02-06T17:13:10.128Z,26.70
2023-02-06T17:23:16.962Z,26.10
2023-02-06T17:33:23.360Z,31.30
2023-02-06T17:43:31.024Z,29.30
2023-02-06T17:53:37.407Z,32.70
2023-02-06T18:03:44.554Z,37.00
2023-02-06T18:13:51.715Z,32.40
2023-02-06T18:23:59.323Z,36.50
2023-02-06T18:34:08.965Z,34.10
2023-02-06T18:44:16.355Z,42.90
2023-02-06T18:54:22.758Z,45.30
2023-02-06T19:04:29.089Z,53.80
2023-02-06T19:14:35.744Z,50.30
2023-02-06T19:24:43.640Z,63.70
2023-02-06T19:34:50.135Z,103.80
2023-02-06T19:44:56.596Z,132.80
2023-02-06T19:55:03.202Z,101.20
2023-02-06T20:05:09.950Z,102.60
2023-02-06T20:15:16.710Z,162.90
2023-02-06T20:25:23.244Z,152.60
2023-02-06T20:35:29.977Z,123.20
2023-02-06T20:45:36.479Z,103.40
2023-02-06T20:55:45.512Z,127.10
2023-02-06T21:06:01.824Z,187.40
2023-02-06T21:16:09.257Z,147.10
2023-02-06T21:26:18.266Z,148.40
2023-02-06T21:36:25.193Z,113.30
2023-02-06T21:46:32.141Z,86.90
2023-02-06T21:56:41.838Z,78.70
2023-02-06T22:06:49.115Z,80.90
2023-02-06T22:16:55.584Z,105.10
2023-02-06T22:27:01.913Z,81.70
2023-02-06T22:37:08.229Z,100.20
2023-02-06T22:47:14.524Z,84.50
2023-02-06T22:57:20.918Z,70.40
2023-02-06T23:07:27.192Z,87.80
2023-02-06T23:17:33.720Z,92.80
2023-02-06T23:27:40.034Z,112.50
2023-02-06T23:37:46.370Z,108.20
2023-02-06T23:47:53.395Z,100.00
2023-02-06T23:57:59.715Z,103.60
